createdAt,value
2019-03-17T00:01:56.744Z,1.63
2019-03-17T00:04:14.516Z,1.97
2019-03-17T00:06:42.828Z,2.30
2019-03-17T00:09:11.039Z,1.80
2019-03-17T00:11:39.203Z,1.90
2019-03-17T00:14:07.376Z,2.30
2019-03-17T00:16:35.521Z,2.17
2019-03-17T00:19:03.727Z,2.00
2019-03-17T00:21:31.964Z,2.20
2019-03-17T00:24:00.203Z,2.50
2019-03-17T00:26:28.350Z,2.20
2019-03-17T00:28:56.553Z,2.93
2019-03-17T00:31:24.794Z,2.87
2019-03-17T00:33:52.917Z,2.40
2019-03-17T00:36:21.043Z,2.40
2019-03-17T00:38:49.250Z,3.00
2019-03-17T00:41:17.466Z,3.20
2019-03-17T00:43:45.744Z,2.73
2019-03-17T00:46:14.005Z,3.47
2019-03-17T00:48:42.150Z,2.90
2019-03-17T00:51:10.417Z,4.40
2019-03-17T00:53:39.138Z,3.57
2019-03-17T00:56:07.332Z,4.30
2019-03-17T00:58:35.567Z,4.37
2019-03-17T01:01:03.849Z,4.37
2019-03-17T01:03:32.030Z,3.80
2019-03-17T01:06:00.263Z,4.63
2019-03-17T01:08:28.474Z,4.60
2019-03-17T01:10:56.643Z,5.17
2019-03-17T01:13:24.933Z,5.40
2019-03-17T01:15:53.148Z,4.67
2019-03-17T01:18:21.372Z,5.43
2019-03-17T01:20:49.529Z,4.37
2019-03-17T01:23:17.647Z,5.00
2019-03-17T01:25:45.869Z,4.43
2019-03-17T01:28:14.086Z,4.80
2019-03-17T01:30:42.237Z,5.37
2019-03-17T01:33:10.315Z,4.23
2019-03-17T01:35:38.401Z,5.37
2019-03-17T01:38:06.721Z,4.90
2019-03-17T01:40:34.915Z,5.27
2019-03-17T01:43:03.001Z,5.50
2019-03-17T01:45:31.161Z,4.90
2019-03-17T01:47:59.352Z,4.57
2019-03-17T01:50:27.509Z,4.60
2019-03-17T01:52:55.782Z,3.77
2019-03-17T01:55:24.119Z,4.30
2019-03-17T01:57:52.251Z,4.17
2019-03-17T02:00:20.542Z,3.30
2019-03-17T02:02:48.701Z,3.77
2019-03-17T02:05:21.861Z,4.60
2019-03-17T02:07:46.789Z,4.10
2019-03-17T02:10:14.982Z,5.63
2019-03-17T02:12:43.140Z,5.80
2019-03-17T02:15:11.262Z,5.57
2019-03-17T02:17:39.417Z,5.93
2019-03-17T02:20:07.993Z,6.33
2019-03-17T02:22:36.190Z,5.60
2019-03-17T02:25:04.639Z,5.30
2019-03-17T02:27:32.808Z,5.17
2019-03-17T02:30:00.968Z,4.87
2019-03-17T02:32:29.120Z,5.33
2019-03-17T02:34:57.298Z,5.33
2019-03-17T02:37:25.539Z,5.40
2019-03-17T02:39:53.670Z,5.00
2019-03-17T02:42:21.899Z,5.70
2019-03-17T02:44:50.054Z,4.93
2019-03-17T02:47:18.198Z,5.03
2019-03-17T02:49:46.664Z,5.30
2019-03-17T02:52:14.767Z,4.37
2019-03-17T02:54:42.859Z,4.90
2019-03-17T02:57:10.971Z,4.30
2019-03-17T02:59:39.229Z,4.10
2019-03-17T03:02:07.422Z,4.20
2019-03-17T03:04:35.532Z,4.27
2019-03-17T03:07:03.918Z,4.20
2019-03-17T03:09:32.070Z,4.90
2019-03-17T03:12:00.233Z,4.33
2019-03-17T03:14:28.444Z,4.80
2019-03-17T03:16:56.709Z,4.30
2019-03-17T03:19:24.887Z,4.87
2019-03-17T03:21:53.009Z,4.73
2019-03-17T03:24:21.200Z,4.90
2019-03-17T03:26:49.271Z,4.97
2019-03-17T03:29:17.375Z,4.67
2019-03-17T03:31:45.582Z,3.87
2019-03-17T03:34:13.845Z,4.10
2019-03-17T03:36:42.139Z,4.40
2019-03-17T03:39:10.279Z,3.93
2019-03-17T03:41:38.569Z,4.17
2019-03-17T03:44:06.662Z,4.60
2019-03-17T03:46:34.831Z,4.20
2019-03-17T03:49:03.323Z,4.13
2019-03-17T03:51:31.457Z,3.53
2019-03-17T03:53:59.614Z,3.60
2019-03-17T03:56:27.783Z,4.00
2019-03-17T03:58:55.893Z,4.13
2019-03-17T04:01:24.017Z,3.80
2019-03-17T04:03:52.241Z,3.60
2019-03-17T04:06:26.323Z,3.43
2019-03-17T04:08:50.131Z,3.17
2019-03-17T04:11:18.293Z,2.90
2019-03-17T04:13:46.475Z,3.93
2019-03-17T04:16:14.627Z,3.23
2019-03-17T04:18:42.756Z,3.07
2019-03-17T04:21:10.962Z,3.57
2019-03-17T04:23:39.083Z,3.00
2019-03-17T04:26:07.586Z,2.87
2019-03-17T04:28:35.661Z,2.83
2019-03-17T04:31:03.826Z,3.30
2019-03-17T04:33:31.966Z,2.60
2019-03-17T04:36:00.327Z,3.00
2019-03-17T04:38:28.441Z,2.93
2019-03-17T04:40:56.558Z,3.10
2019-03-17T04:43:24.799Z,3.07
2019-03-17T04:45:53.095Z,2.80
2019-03-17T04:48:21.197Z,2.70
2019-03-17T04:50:49.437Z,2.70
2019-03-17T04:53:17.605Z,3.23
2019-03-17T04:55:45.709Z,2.50
2019-03-17T04:58:13.911Z,2.40
2019-03-17T05:00:42.199Z,2.90
2019-03-17T05:03:10.328Z,3.00
2019-03-17T05:05:38.480Z,2.53
2019-03-17T05:08:06.588Z,2.50
2019-03-17T05:10:34.770Z,2.90
2019-03-17T05:13:02.921Z,2.37
2019-03-17T05:15:31.094Z,2.77
2019-03-17T05:17:59.287Z,2.40
2019-03-17T05:20:27.568Z,2.23
2019-03-17T05:22:55.819Z,1.97
2019-03-17T05:25:24.300Z,2.70
2019-03-17T05:28:09.757Z,2.07
2019-03-17T05:30:38.401Z,2.13
2019-03-17T05:33:06.500Z,1.90
2019-03-17T05:35:34.637Z,1.60
2019-03-17T05:38:02.789Z,2.00
2019-03-17T05:40:30.966Z,1.90
2019-03-17T05:42:59.287Z,1.30
2019-03-17T05:45:27.378Z,1.67
2019-03-17T05:47:55.789Z,1.73
2019-03-17T05:50:23.998Z,1.73
2019-03-17T05:52:52.172Z,1.60
2019-03-17T05:55:20.350Z,1.60
2019-03-17T05:57:48.842Z,1.60
2019-03-17T06:00:17.389Z,1.40
2019-03-17T06:02:45.473Z,1.47
2019-03-17T06:05:13.680Z,1.87
2019-03-17T06:07:41.966Z,1.37
2019-03-17T06:10:10.083Z,1.37
2019-03-17T06:12:38.279Z,1.67
2019-03-17T06:15:06.821Z,1.57
2019-03-17T06:17:35.001Z,1.20
2019-03-17T06:20:03.265Z,1.70
2019-03-17T06:22:31.419Z,1.70
2019-03-17T06:24:59.588Z,1.50
2019-03-17T06:27:27.673Z,1.37
2019-03-17T06:29:55.936Z,2.20
2019-03-17T06:32:24.155Z,1.60
2019-03-17T06:34:52.538Z,1.73
2019-03-17T06:37:30.597Z,1.50
2019-03-17T06:39:50.712Z,1.50
2019-03-17T06:42:18.846Z,1.90
2019-03-17T06:44:46.995Z,1.70
2019-03-17T06:47:15.158Z,1.73
2019-03-17T06:49:43.361Z,1.60
2019-03-17T06:52:11.558Z,1.40
2019-03-17T06:54:39.843Z,1.60
2019-03-17T06:57:08.065Z,1.40
2019-03-17T06:59:36.312Z,1.77
2019-03-17T07:02:04.482Z,1.43
2019-03-17T07:04:32.707Z,1.50
2019-03-17T07:07:00.825Z,1.10
2019-03-17T07:09:29.019Z,1.70
2019-03-17T07:11:57.278Z,1.20
2019-03-17T07:14:25.466Z,1.50
2019-03-17T07:16:53.692Z,1.33
2019-03-17T07:19:21.848Z,1.40
2019-03-17T07:21:49.999Z,1.63
2019-03-17T07:24:18.113Z,1.20
2019-03-17T07:26:46.243Z,1.40
2019-03-17T07:29:14.412Z,1.60
2019-03-17T07:31:42.665Z,1.60
2019-03-17T07:34:10.980Z,1.20
2019-03-17T07:36:39.166Z,1.50
2019-03-17T07:39:12.070Z,1.70
2019-03-17T07:41:37.826Z,1.40
2019-03-17T07:44:06.075Z,1.50
2019-03-17T07:46:34.422Z,1.40
2019-03-17T07:49:02.677Z,1.67
2019-03-17T07:51:30.834Z,1.30
2019-03-17T07:53:58.980Z,1.23
2019-03-17T07:56:27.368Z,1.50
2019-03-17T07:58:55.438Z,1.30
2019-03-17T08:01:23.727Z,1.50
2019-03-17T08:03:51.854Z,1.97
2019-03-17T08:06:20.013Z,1.60
2019-03-17T08:08:48.362Z,1.30
2019-03-17T08:11:16.610Z,1.77
2019-03-17T08:13:44.818Z,1.30
2019-03-17T08:16:13.110Z,1.40
2019-03-17T08:18:48.926Z,1.40
2019-03-17T08:21:17.760Z,1.60
2019-03-17T08:23:46.201Z,1.40
2019-03-17T08:26:15.189Z,1.60
2019-03-17T08:28:46.676Z,1.20
2019-03-17T08:31:14.931Z,1.57
2019-03-17T08:33:43.091Z,1.43
2019-03-17T08:36:11.188Z,1.60
2019-03-17T08:38:39.330Z,1.40
2019-03-17T08:41:07.466Z,1.20
2019-03-17T08:43:35.837Z,1.47
2019-03-17T08:46:04.112Z,1.70
2019-03-17T08:48:32.272Z,1.60
2019-03-17T08:51:00.393Z,1.70
2019-03-17T08:53:28.509Z,1.53
2019-03-17T08:55:56.805Z,1.50
2019-03-17T08:58:25.006Z,1.70
2019-03-17T09:00:53.148Z,1.70
2019-03-17T09:03:21.279Z,1.70
2019-03-17T09:05:49.412Z,2.20
2019-03-17T09:08:17.525Z,2.20
2019-03-17T09:10:45.794Z,2.20
2019-03-17T09:13:13.979Z,2.37
2019-03-17T09:15:42.056Z,2.10
2019-03-17T09:18:10.195Z,1.77
2019-03-17T09:20:38.310Z,2.97
2019-03-17T09:23:06.435Z,2.97
2019-03-17T09:25:35.855Z,2.20
2019-03-17T09:28:05.189Z,2.20
2019-03-17T09:30:33.279Z,2.13
2019-03-17T09:33:01.383Z,2.00
2019-03-17T09:35:29.945Z,2.90
2019-03-17T09:37:58.105Z,2.10
2019-03-17T09:40:26.240Z,2.60
2019-03-17T09:42:54.355Z,1.87
2019-03-17T09:45:22.517Z,2.03
2019-03-17T09:47:50.619Z,2.93
2019-03-17T09:50:18.772Z,2.30
2019-03-17T09:52:47.091Z,2.57
2019-03-17T09:55:15.502Z,2.30
2019-03-17T09:57:43.756Z,2.50
2019-03-17T10:00:12.663Z,2.67
2019-03-17T10:02:40.797Z,2.07
2019-03-17T10:05:09.529Z,1.93
2019-03-17T10:07:37.889Z,2.53
2019-03-17T10:10:06.153Z,2.90
2019-03-17T10:12:34.420Z,2.20
2019-03-17T10:15:02.641Z,2.40
2019-03-17T10:17:31.329Z,1.93
2019-03-17T10:19:59.457Z,2.25
2019-03-17T10:22:27.739Z,2.10
2019-03-17T10:24:55.833Z,2.93
2019-03-17T10:27:24.002Z,2.10
2019-03-17T10:29:52.161Z,2.27
2019-03-17T10:32:20.363Z,2.87
2019-03-17T10:34:48.459Z,2.30
2019-03-17T10:37:16.679Z,2.47
2019-03-17T10:39:44.860Z,3.20
2019-03-17T10:42:13.059Z,2.40
2019-03-17T10:44:41.366Z,2.40
2019-03-17T10:47:09.512Z,2.20
2019-03-17T10:49:37.851Z,1.80
2019-03-17T10:52:06.402Z,2.60
2019-03-17T10:54:34.561Z,2.40
2019-03-17T10:57:02.794Z,2.30
2019-03-17T10:59:30.975Z,2.37
2019-03-17T11:01:59.110Z,2.10
2019-03-17T11:04:27.239Z,1.53
2019-03-17T11:06:55.608Z,2.03
2019-03-17T11:09:25.488Z,1.90
2019-03-17T11:11:53.520Z,1.50
2019-03-17T11:14:21.777Z,1.60
2019-03-17T11:16:50.171Z,1.90
2019-03-17T11:19:18.561Z,1.50
2019-03-17T11:21:46.697Z,1.30
2019-03-17T11:24:14.974Z,1.60
2019-03-17T11:26:43.057Z,1.47
2019-03-17T11:29:11.403Z,1.77
2019-03-17T11:31:39.748Z,1.60
2019-03-17T11:34:08.076Z,1.40
2019-03-17T11:36:36.177Z,1.40
2019-03-17T11:39:05.792Z,1.40
2019-03-17T11:41:34.190Z,1.40
2019-03-17T11:44:02.407Z,1.67
2019-03-17T11:46:30.646Z,1.20
2019-03-17T11:48:58.751Z,1.50
2019-03-17T11:51:27.030Z,1.20
2019-03-17T11:53:55.139Z,1.30
2019-03-17T11:56:23.358Z,1.33
2019-03-17T11:58:51.674Z,1.60
2019-03-17T12:01:19.800Z,1.20
2019-03-17T12:03:47.985Z,1.43
2019-03-17T12:06:16.148Z,1.50
2019-03-17T12:08:44.272Z,1.63
2019-03-17T12:11:12.395Z,1.50
2019-03-17T12:13:40.668Z,1.50
2019-03-17T12:16:08.927Z,1.37
2019-03-17T12:18:37.414Z,1.90
2019-03-17T12:21:05.527Z,1.50
2019-03-17T12:23:33.653Z,1.87
2019-03-17T12:26:02.137Z,2.30
2019-03-17T12:28:32.959Z,1.30
2019-03-17T12:31:02.126Z,1.20
2019-03-17T12:33:30.474Z,1.10
2019-03-17T12:35:58.893Z,1.00
2019-03-17T12:38:27.178Z,1.07
2019-03-17T12:40:55.272Z,1.10
2019-03-17T12:43:23.420Z,1.60
2019-03-17T12:45:51.483Z,1.30
2019-03-17T12:48:19.605Z,1.17
2019-03-17T12:50:47.755Z,1.33
2019-03-17T12:53:15.988Z,1.40
2019-03-17T12:55:44.093Z,1.00
2019-03-17T12:58:14.740Z,1.00
2019-03-17T13:00:42.100Z,0.80
2019-03-17T13:03:10.207Z,0.70
2019-03-17T13:05:39.472Z,0.73
2019-03-17T13:08:07.600Z,0.63
2019-03-17T13:10:35.903Z,0.60
2019-03-17T13:13:04.089Z,0.60
2019-03-17T13:15:32.259Z,0.53
2019-03-17T13:18:00.397Z,0.77
2019-03-17T13:20:29.766Z,0.70
2019-03-17T13:22:58.197Z,0.40
2019-03-17T13:25:26.386Z,0.50
2019-03-17T13:27:54.629Z,0.73
2019-03-17T13:30:22.872Z,0.37
2019-03-17T13:32:51.106Z,0.40
2019-03-17T13:35:19.214Z,0.37
2019-03-17T13:37:47.400Z,0.30
2019-03-17T13:40:27.704Z,0.60
2019-03-17T13:42:45.434Z,0.47
2019-03-17T13:45:13.712Z,0.40
2019-03-17T13:47:42.019Z,0.40
2019-03-17T13:50:11.182Z,0.37
2019-03-17T13:52:39.368Z,0.50
2019-03-17T13:55:07.584Z,0.40
2019-03-17T13:57:35.750Z,0.57
2019-03-17T14:00:04.031Z,0.60
2019-03-17T14:02:32.203Z,0.50
2019-03-17T14:05:01.259Z,0.70
2019-03-17T14:07:29.420Z,0.63
2019-03-17T14:09:57.483Z,0.60
2019-03-17T14:12:25.684Z,0.50
2019-03-17T14:14:53.796Z,0.43
2019-03-17T14:17:21.955Z,1.97
2019-03-17T14:19:50.088Z,2.67
2019-03-17T14:22:18.220Z,1.17
2019-03-17T14:24:46.370Z,1.57
2019-03-17T14:27:14.473Z,1.53
2019-03-17T14:29:42.669Z,1.10
2019-03-17T14:32:10.776Z,0.60
2019-03-17T14:34:38.985Z,1.10
2019-03-17T14:37:07.193Z,0.60
2019-03-17T14:39:38.526Z,1.00
2019-03-17T14:42:06.854Z,0.70
2019-03-17T14:44:34.949Z,0.60
2019-03-17T14:47:06.121Z,0.50
2019-03-17T14:49:34.545Z,1.27
2019-03-17T14:52:02.695Z,0.70
2019-03-17T14:54:30.835Z,0.73
2019-03-17T14:56:58.994Z,0.40
2019-03-17T14:59:27.145Z,0.57
2019-03-17T15:01:55.296Z,0.70
2019-03-17T15:04:23.548Z,0.50
2019-03-17T15:06:51.665Z,0.60
2019-03-17T15:09:19.765Z,0.40
2019-03-17T15:11:48.233Z,0.40
2019-03-17T15:14:16.377Z,0.70
2019-03-17T15:16:44.578Z,0.83
2019-03-17T15:19:13.218Z,0.60
2019-03-17T15:21:41.382Z,0.63
2019-03-17T15:24:09.604Z,0.83
2019-03-17T15:26:37.812Z,0.63
2019-03-17T15:29:06.003Z,0.80
2019-03-17T15:31:34.181Z,0.57
2019-03-17T15:34:02.766Z,0.73
2019-03-17T15:36:30.970Z,0.70
2019-03-17T15:38:59.237Z,0.67
2019-03-17T15:41:30.542Z,0.70
2019-03-17T15:43:58.708Z,1.13
2019-03-17T15:46:26.852Z,0.63
2019-03-17T15:48:55.058Z,0.93
2019-03-17T15:51:23.258Z,0.87
2019-03-17T15:53:51.450Z,0.93
2019-03-17T15:56:19.710Z,0.73
2019-03-17T15:58:47.853Z,0.70
2019-03-17T16:01:16.246Z,0.73
2019-03-17T16:03:44.415Z,0.50
2019-03-17T16:06:12.524Z,0.80
2019-03-17T16:08:40.684Z,0.80
2019-03-17T16:11:08.822Z,1.00
2019-03-17T16:13:36.966Z,1.13
2019-03-17T16:16:05.106Z,0.90
2019-03-17T16:18:33.185Z,0.90
2019-03-17T16:21:01.334Z,1.10
2019-03-17T16:23:29.532Z,1.00
2019-03-17T16:25:57.643Z,0.63
2019-03-17T16:28:25.922Z,0.97
2019-03-17T16:30:54.061Z,1.30
2019-03-17T16:33:22.271Z,1.20
2019-03-17T16:35:50.479Z,0.87
2019-03-17T16:38:18.603Z,2.73
2019-03-17T16:40:46.712Z,1.10
2019-03-17T16:43:14.916Z,1.03
2019-03-17T16:45:43.007Z,0.97
2019-03-17T16:48:11.221Z,1.50
2019-03-17T16:50:39.375Z,0.77
2019-03-17T16:53:07.509Z,0.83
2019-03-17T16:55:35.635Z,0.70
2019-03-17T16:58:04.045Z,0.70
2019-03-17T17:00:32.271Z,0.80
2019-03-17T17:03:00.429Z,0.50
2019-03-17T17:05:28.589Z,0.70
2019-03-17T17:07:56.678Z,0.80
2019-03-17T17:10:24.808Z,1.00
2019-03-17T17:12:52.949Z,1.10
2019-03-17T17:15:21.987Z,0.77
2019-03-17T17:17:52.242Z,0.70
2019-03-17T17:20:23.952Z,1.20
2019-03-17T17:22:52.063Z,0.80
2019-03-17T17:25:20.297Z,1.03
2019-03-17T17:27:48.413Z,1.20
2019-03-17T17:30:16.645Z,1.10
2019-03-17T17:32:44.946Z,1.10
2019-03-17T17:35:13.343Z,1.27
2019-03-17T17:37:41.426Z,1.10
2019-03-17T17:40:10.420Z,1.20
2019-03-17T17:42:38.546Z,1.37
2019-03-17T17:45:07.581Z,1.30
2019-03-17T17:47:35.721Z,1.40
2019-03-17T17:50:05.046Z,1.10
2019-03-17T17:52:33.197Z,1.00
2019-03-17T17:55:01.342Z,1.47
2019-03-17T17:57:29.454Z,1.23
2019-03-17T17:59:57.568Z,1.13
2019-03-17T18:02:25.785Z,1.00
2019-03-17T18:04:53.952Z,1.37
2019-03-17T18:07:22.066Z,0.97
2019-03-17T18:09:50.413Z,1.13
2019-03-17T18:12:21.326Z,1.10
2019-03-17T18:14:51.160Z,1.20
2019-03-17T18:17:19.324Z,1.27
2019-03-17T18:19:50.229Z,1.03
2019-03-17T18:22:21.248Z,1.20
2019-03-17T18:24:49.424Z,1.10
2019-03-17T18:27:18.308Z,1.30
2019-03-17T18:29:46.548Z,1.10
2019-03-17T18:32:14.719Z,1.20
2019-03-17T18:34:45.920Z,0.93
2019-03-17T18:37:14.062Z,1.20
2019-03-17T18:39:42.299Z,0.80
2019-03-17T18:42:10.423Z,1.40
2019-03-17T18:44:38.530Z,1.80
2019-03-17T18:47:06.717Z,1.73
2019-03-17T18:49:34.891Z,1.10
2019-03-17T18:52:03.061Z,1.10
2019-03-17T18:54:31.290Z,0.87
2019-03-17T18:57:02.148Z,1.00
2019-03-17T18:59:30.302Z,1.10
2019-03-17T19:01:58.382Z,1.10
2019-03-17T19:04:26.662Z,1.10
2019-03-17T19:06:57.597Z,1.33
2019-03-17T19:09:25.775Z,1.00
2019-03-17T19:11:54.328Z,1.10
2019-03-17T19:14:22.532Z,1.20
2019-03-17T19:16:50.595Z,1.53
2019-03-17T19:19:18.810Z,2.10
2019-03-17T19:21:46.907Z,1.47
2019-03-17T19:24:15.387Z,1.73
2019-03-17T19:26:43.520Z,1.63
2019-03-17T19:29:11.885Z,1.43
2019-03-17T19:31:40.011Z,1.90
2019-03-17T19:34:08.114Z,1.67
2019-03-17T19:36:36.287Z,1.63
2019-03-17T19:39:06.367Z,1.90
2019-03-17T19:41:34.512Z,1.90
2019-03-17T19:44:03.767Z,1.90
2019-03-17T19:46:32.058Z,2.10
2019-03-17T19:49:00.180Z,2.00
2019-03-17T19:51:28.373Z,2.00
2019-03-17T19:53:56.473Z,1.60
2019-03-17T19:56:24.665Z,1.60
2019-03-17T19:58:52.797Z,2.00
2019-03-17T20:01:20.950Z,1.60
2019-03-17T20:03:49.312Z,1.33
2019-03-17T20:06:17.432Z,1.10
2019-03-17T20:08:45.506Z,1.17
2019-03-17T20:11:13.629Z,1.00
2019-03-17T20:13:41.876Z,0.80
2019-03-17T20:16:10.070Z,1.00
2019-03-17T20:18:38.260Z,0.90
2019-03-17T20:21:06.481Z,1.37
2019-03-17T20:23:34.526Z,1.10
2019-03-17T20:26:02.686Z,0.90
2019-03-17T20:28:30.793Z,1.07
2019-03-17T20:30:59.030Z,1.37
2019-03-17T20:33:27.177Z,0.87
2019-03-17T20:35:55.318Z,1.00
2019-03-17T20:38:23.521Z,0.97
2019-03-17T20:40:51.662Z,0.90
2019-03-17T20:43:34.125Z,1.00
2019-03-17T20:45:49.635Z,0.90
2019-03-17T20:48:17.924Z,0.87
2019-03-17T20:50:46.122Z,1.10
2019-03-17T20:53:14.258Z,0.83
2019-03-17T20:55:42.516Z,0.90
2019-03-17T20:58:10.603Z,0.80
2019-03-17T21:00:38.826Z,0.90
2019-03-17T21:03:06.993Z,1.30
2019-03-17T21:05:35.219Z,1.23
2019-03-17T21:08:03.679Z,0.83
2019-03-17T21:10:31.948Z,1.00
2019-03-17T21:13:00.286Z,1.00
2019-03-17T21:15:28.454Z,1.07
2019-03-17T21:17:56.554Z,0.80
2019-03-17T21:20:24.733Z,1.00
2019-03-17T21:22:52.898Z,1.07
2019-03-17T21:25:21.184Z,1.00
2019-03-17T21:27:49.375Z,0.87
2019-03-17T21:30:18.419Z,1.20
2019-03-17T21:32:46.790Z,1.40
2019-03-17T21:35:14.948Z,1.20
2019-03-17T21:37:43.167Z,1.37
2019-03-17T21:40:11.403Z,1.30
2019-03-17T21:42:39.472Z,1.00
2019-03-17T21:45:07.867Z,1.20
2019-03-17T21:47:36.290Z,1.30
2019-03-17T21:50:05.086Z,1.10
2019-03-17T21:52:33.263Z,1.00
2019-03-17T21:55:01.392Z,1.20
2019-03-17T21:57:29.552Z,0.80
2019-03-17T21:59:57.806Z,1.40
2019-03-17T22:02:25.938Z,1.00
2019-03-17T22:04:54.103Z,1.23
2019-03-17T22:07:22.258Z,1.10
2019-03-17T22:09:50.434Z,1.13
2019-03-17T22:12:18.646Z,1.73
2019-03-17T22:14:46.783Z,1.13
2019-03-17T22:17:15.142Z,1.10
2019-03-17T22:19:43.259Z,0.90
2019-03-17T22:22:11.410Z,1.00
2019-03-17T22:24:39.546Z,0.87
2019-03-17T22:27:07.674Z,1.03
2019-03-17T22:29:36.101Z,0.80
2019-03-17T22:32:04.235Z,1.20
2019-03-17T22:34:32.340Z,1.20
2019-03-17T22:37:00.481Z,1.10
2019-03-17T22:39:28.602Z,1.27
2019-03-17T22:41:56.723Z,0.83
2019-03-17T22:44:27.930Z,1.17
2019-03-17T22:46:54.689Z,1.17
2019-03-17T22:49:22.818Z,1.30
2019-03-17T22:51:51.010Z,1.33
2019-03-17T22:54:19.513Z,1.10
2019-03-17T22:56:47.664Z,1.27
2019-03-17T22:59:15.789Z,1.40
2019-03-17T23:01:43.968Z,1.27
2019-03-17T23:04:12.092Z,1.50
2019-03-17T23:06:40.384Z,1.20
2019-03-17T23:09:08.483Z,1.20
2019-03-17T23:11:36.688Z,1.43
2019-03-17T23:14:04.825Z,1.00
2019-03-17T23:16:32.958Z,1.20
2019-03-17T23:19:01.089Z,1.57
2019-03-17T23:21:29.216Z,1.60
2019-03-17T23:23:57.363Z,1.50
2019-03-17T23:26:25.470Z,1.43
2019-03-17T23:28:53.604Z,1.10
2019-03-17T23:31:21.752Z,1.30
2019-03-17T23:33:50.095Z,1.60
2019-03-17T23:36:18.276Z,1.57
2019-03-17T23:38:46.642Z,1.40
2019-03-17T23:41:14.767Z,1.20
2019-03-17T23:43:42.825Z,1.40
2019-03-17T23:46:10.931Z,1.30
2019-03-17T23:48:39.067Z,0.90
2019-03-17T23:51:07.341Z,1.20
2019-03-17T23:53:35.547Z,1.07
2019-03-17T23:56:03.678Z,1.20
2019-03-17T23:58:32.017Z,1.10
